Latest Coastal Weather Observations for Cape Grim

IDV60701

Issued at 3:11 pm EST Tuesday 7 July 2015 (issued every 10 minutes, with the page automatically refreshed every 10 minutes)

About coastal observations | Map of coastal stations | Coastal observations for VIC | Marine services | Other Formats
Station Details ID: 091331 Name: CAPE GRIM Lat: -40.68 Lon: 144.69 Height: 86.0 m
Data from the previous 72 hours. | See also: Recent months at Cape Grim
Date/Time
EST
Temp

°C
Wind Pressure Rain
since 9am
mm
Weather Cloud Vis
km
Sea
Height
m
Swell
Dir
 
Speed
knots
Gust
knots
hPa Trend Height
m
Period
s
Dir
07/03:00pm 8.6 ENE 15 18 1024.1 - 0.0 - - - - - - -
07/02:30pm 8.6 E 13 17 1024.2 - 0.0 - - - - - - -
07/02:00pm 8.7 E 15 18 1024.2 - 0.0 - - - - - - -
07/01:30pm 8.7 E 16 20 1024.2 - 0.0 - - - - - - -
07/01:00pm 8.6 ENE 16 19 1024.3 - 0.0 - - - - - - -
07/12:30pm 8.6 ENE 16 19 1024.6 - 0.0 - - - - - - -
07/12:00pm 8.9 ENE 17 22 1024.5 - 0.0 - - - - - - -
07/11:30am 8.8 ENE 17 21 1024.6 - 0.0 - - - - - - -
07/11:00am 8.5 E 17 22 1024.9 - 0.0 - - - - - - -
07/10:30am 8.4 E 15 19 1024.9 - 0.0 - - - - - - -
07/10:00am 8.1 E 15 20 1024.6 - 0.0 - - - - - - -
07/09:30am 6.0 E 10 13 1024.3 - 0.0 - - - - - - -
07/09:00am 4.9 E 11 12 1023.9 - 1.0 - - - - - - -
07/08:30am 4.8 E 12 15 1023.7 - 1.0 - - - - - - -
07/08:00am 3.2 E 13 14 1023.5 - 1.0 - - - - - - -
07/07:30am 3.2 E 13 16 1023.2 - 1.0 - - - - - - -
07/07:00am 3.8 E 14 15 1022.8 - 1.0 - Partly cloudy - - - - -
07/06:30am 3.6 E 14 15 1022.3 - 1.0 - Partly cloudy - - - - -
07/06:00am 3.9 E 15 17 1021.8 - 1.0 - - - - - - -
07/05:30am 3.5 ESE 14 17 1021.4 - 1.0 - - - - - - -
07/05:00am 3.4 E 13 15 1021.1 - 1.0 - - - - - - -
07/04:30am 4.1 E 15 16 1020.8 - 1.0 - - - - - - -
07/04:00am 3.7 E 14 16 1020.5 - 1.0 - - - - - - -
07/03:30am 4.0 E 14 16 1020.6 - 1.0 - Partly cloudy - - - - -
07/03:00am 4.7 ESE 13 16 1020.7 - 1.0 - Cloudy - - - - -
07/02:30am 6.6 E 15 18 1020.5 - 1.0 - Cloudy - - - - -
07/02:00am 6.5 E 15 19 1020.1 - 1.0 - Partly cloudy - - - - -
07/01:30am 6.7 E 16 21 1020.0 - 1.0 - - - - - - -
07/01:00am 6.7 E 16 19 1019.8 - 1.0 - - - - - - -
07/12:30am 6.7 E 16 20 1019.7 - 1.0 - - - - - - -
07/12:00am 6.8 E 17 21 1019.5 - 1.0 - - - - - - -
 
Date/Time
EST
Temp

°C
Wind Pressure Rain
since 9am
mm
Weather Cloud Vis
km
Sea
Height
m
Swell
Dir
 
Speed
knots
Gust
knots
hPa Trend Height
m
Period
s
Dir
06/11:30pm 7.0 E 18 22 1019.5 - 1.0 - - - - - - -
06/11:00pm 7.2 E 19 24 1019.2 - 1.0 - - - - - - -
06/10:30pm 7.6 E 17 20 1019.0 - 1.0 - Partly cloudy - - - - -
06/10:00pm 8.3 E 16 19 1018.8 - 1.0 - Cloudy - - - - -
06/09:30pm 8.5 E 14 19 1018.5 - 1.0 - Cloudy - - - - -
06/09:00pm 8.9 E 15 19 1018.1 - 1.0 - Mostly cloudy - - - - -
06/08:30pm 9.2 E 16 22 1017.5 - 1.0 - Cloudy - - - - -
06/08:00pm 9.0 ENE 15 20 1017.0 - 1.0 - Cloudy - - - - -
06/07:30pm 8.9 E 16 19 1016.9 - 1.0 - Partly cloudy - - - - -
06/07:28pm 8.9 E 16 19 1016.9 - 1.0 - Partly cloudy - - - - -
06/07:00pm 8.7 E 15 20 1016.6 - 1.0 - Partly cloudy - - - - -
06/06:30pm 8.8 E 15 18 1016.3 - 1.0 - Partly cloudy - - - - -
06/06:00pm 8.9 E 17 21 1015.9 - 1.0 - Cloudy - - - - -
06/05:57pm 8.9 E 17 21 1015.9 - 1.0 - Partly cloudy - - - - -
06/05:30pm 9.1 E 18 23 1015.4 - 1.0 - Partly cloudy - - - - -
06/05:21pm 9.1 E 17 21 1015.3 - 1.0 - Partly cloudy - - - - -
06/05:00pm 9.0 E 18 21 1015.2 - 1.0 - Partly cloudy - - - - -
06/04:30pm 9.2 E 17 21 1014.8 - 1.0 - Cloudy - - - - -
06/04:00pm 9.1 E 17 21 1014.6 - 1.0 - Cloudy - - - - -
06/03:30pm 9.2 E 16 20 1014.2 - 1.0 - Cloudy - - - - -
06/03:00pm 9.4 E 16 21 1013.9 - 1.0 - Cloudy - - - - -
06/02:30pm 9.6 E 17 21 1013.5 - 1.0 - Cloudy - - - - -
06/02:00pm 9.7 ENE 17 21 1013.3 - 1.0 - Partly cloudy - - - - -
06/01:30pm 9.7 ENE 17 22 1013.4 - 1.0 - Partly cloudy - - - - -
06/01:00pm 9.7 E 16 20 1013.7 - 1.0 - Partly cloudy - - - - -
06/12:30pm 9.7 E 18 21 1013.7 - 1.0 - Partly cloudy - - - - -
06/12:00pm 9.7 ENE 16 21 1013.9 - 1.0 - Cloudy - - - - -
06/11:30am 9.7 E 15 19 1014.1 - 1.0 - Partly cloudy - - - - -
06/11:00am 9.6 E 13 19 1014.1 - 1.0 - Cloudy - - - - -
06/10:30am 9.7 E 13 17 1014.0 - 0.8 - Partly cloudy - - - - -
06/10:00am 9.8 E 11 14 1013.7 - 0.4 - Cloudy - - - - -
06/09:30am 10.0 ESE 13 14 1013.5 - 0.2 - Cloudy - - - - -
06/09:00am 10.0 ESE 7 9 1013.3 - 32.4 Rain Mostly cloudy - - - - -
06/08:30am 10.2 SSE 6 11 1013.0 - 30.2 - Cloudy - - - - -
06/08:00am 11.2 NW 11 14 1012.5 - 29.6 - Partly cloudy - - - - -
06/07:30am 11.3 WNW 7 9 1012.4 - 29.6 - Partly cloudy - - - - -
06/07:11am 11.0 WNW 4 6 1012.2 - 29.6 - Partly cloudy - - - - -
06/07:00am 11.0 WNW 7 8 1012.1 - 29.6 - Partly cloudy - - - - -
06/06:30am 10.8 NNW 4 6 1011.8 - 29.6 - Partly cloudy - - - - -
06/06:00am 11.1 NNW 4 5 1011.7 - 29.6 Recent precip. Cloudy - - - - -
06/05:30am 11.1 NNW 4 5 1011.6 - 29.4 - Partly cloudy - - - - -
06/05:07am 11.2 NNW 5 7 1011.7 - 29.4 - Partly cloudy - - - - -
06/05:00am 11.2 NW 5 6 1011.7 - 29.4 - Partly cloudy - - - - -
06/04:31am 11.5 WNW 5 7 1011.7 - 29.4 - Partly cloudy - - - - -
06/04:30am 11.5 WNW 5 7 1011.7 - 29.4 - Partly cloudy - - - - -
06/04:07am 11.3 WNW 9 11 1011.7 - 29.2 - Partly cloudy - - - - -
06/04:00am 11.4 WNW 11 15 1011.8 - 29.0 - Partly cloudy - - - - -
06/03:30am 11.9 NW 11 13 1012.0 - 28.4 - Partly cloudy - - - - -
06/03:15am 11.7 NW 9 12 1012.0 - 28.4 - Partly cloudy - - - - -
06/03:00am 11.5 NW 6 7 1012.1 - 28.2 Recent precip. Cloudy - - - - -
06/02:30am 11.5 NW 6 7 1012.0 - 28.2 - Partly cloudy - - - - -
06/02:00am 11.2 WNW 9 11 1012.0 - 28.0 - Partly cloudy - - - - -
06/01:30am 11.2 WNW 11 15 1012.0 - 26.4 - Partly cloudy - - - - -
06/01:00am 11.2 WNW 12 16 1012.3 - 23.8 - Partly cloudy - - - - -
06/12:44am 10.8 NW 14 21 1012.4 - 22.8 - Partly cloudy - - - - -
06/12:31am 10.3 WNW 17 27 1012.2 - 19.2 - Partly cloudy - - - - -
06/12:30am 10.3 WNW 18 27 1012.2 - 19.0 - Partly cloudy - - - - -
06/12:23am 10.5 WNW 21 27 1012.2 - 15.8 - Partly cloudy - - - - -
06/12:16am 12.5 NW 16 27 1012.1 - 13.4 - Partly cloudy - - - - -
06/12:00am 12.5 WNW 17 23 1012.5 - 11.4 Rain Cloudy - - - - -
 
Date/Time
EST
Temp

°C
Wind Pressure Rain
since 9am
mm
Weather Cloud Vis
km
Sea
Height
m
Swell
Dir
 
Speed
knots
Gust
knots
hPa Trend Height
m
Period
s
Dir
05/11:30pm 12.5 WNW 23 30 1012.5 - 9.6 - Partly cloudy - - - - -
05/11:02pm 12.6 WNW 20 28 1012.3 - 9.4 - Partly cloudy - - - - -
05/11:00pm 12.6 WNW 20 28 1012.3 - 9.4 - Partly cloudy - - - - -
05/10:39pm 12.6 WNW 19 27 1012.4 - 9.4 - Partly cloudy - - - - -
05/10:30pm 12.4 NW 19 27 1012.5 - 9.0 - Partly cloudy - - - - -
05/10:00pm 12.7 WNW 18 25 1012.6 - 7.8 - Partly cloudy - - - - -
05/09:46pm 12.6 WNW 19 27 1012.7 - 7.8 - Partly cloudy - - - - -
05/09:33pm 12.6 WNW 18 25 1012.6 - 7.8 - Partly cloudy - - - - -
05/09:30pm 12.6 WNW 19 24 1012.6 - 7.8 - Partly cloudy - - - - -
05/09:00pm 12.6 WNW 20 28 1012.8 - 7.8 Recent precip. Cloudy - - - - -
05/08:30pm 12.3 NW 16 23 1012.9 - 7.8 - Partly cloudy - - - - -
05/08:11pm 12.2 WNW 17 21 1013.0 - 7.4 - Partly cloudy - - - - -
05/08:00pm 12.3 WNW 18 25 1013.0 - 7.4 - Partly cloudy - - - - -
05/07:30pm 12.2 WNW 21 27 1013.1 - 7.2 - Partly cloudy - - - - -
05/07:19pm 12.6 WNW 19 25 1013.0 - 6.8 - Partly cloudy - - - - -
05/07:00pm 12.5 NW 18 24 1013.1 - 6.6 - Partly cloudy - - - - -
05/06:30pm 12.3 WNW 16 22 1012.9 - 6.6 - Partly cloudy - - - - -
05/06:11pm 12.3 WNW 18 24 1013.0 - 6.2 - Partly cloudy - - - - -
05/06:00pm 12.4 WNW 21 27 1013.0 - 6.2 Recent precip. Cloudy - - - - -
05/05:36pm 12.4 WNW 20 27 1012.8 - 6.2 - Partly cloudy - - - - -
05/05:30pm 12.4 WNW 21 27 1012.7 - 6.2 - Partly cloudy - - - - -
05/05:00pm 12.6 WNW 18 25 1012.8 - 6.0 - Partly cloudy - - - - -
05/04:55pm 12.6 WNW 19 25 1012.8 - 6.0 - Partly cloudy - - - - -
05/04:45pm 12.6 WNW 19 24 1012.8 - 6.0 - Partly cloudy - - - - -
05/04:30pm 12.6 WNW 19 28 1012.8 - 6.0 - Partly cloudy - - - - -
05/04:00pm 12.7 WNW 21 27 1012.9 - 6.0 - Partly cloudy - - - - -
05/03:52pm 12.7 WNW 21 26 1012.9 - 6.0 - Partly cloudy - - - - -
05/03:51pm 12.6 WNW 21 26 1012.9 - 6.0 - Partly cloudy - - - - -
05/03:30pm 12.7 WNW 23 29 1012.8 - 6.0 - Partly cloudy - - - - -
05/03:00pm 12.5 WNW 22 27 1012.7 - 6.0 - Cloudy - - - - -
05/02:32pm 12.8 WNW 21 26 1012.9 - 6.0 - Partly cloudy - - - - -
05/02:30pm 12.8 WNW 22 27 1012.9 - 6.0 - Partly cloudy - - - - -
05/02:00pm 12.8 WNW 22 26 1012.9 - 6.0 - Partly cloudy - - - - -
05/01:30pm 12.8 WNW 24 30 1013.1 - 6.0 - Partly cloudy - - - - -
05/01:00pm 13.0 WNW 24 30 1013.3 - 6.0 - Partly cloudy - - - - -
05/12:38pm 12.9 WNW 23 31 1013.3 - 6.0 - Partly cloudy - - - - -
05/12:30pm 12.9 WNW 23 29 1013.4 - 6.0 - Partly cloudy - - - - -
05/12:00pm 12.8 WNW 23 29 1013.7 - 5.8 Recent precip. Cloudy - - - - -
05/11:43am 12.7 WNW 23 29 1014.0 - 5.8 - Partly cloudy - - - - -
05/11:30am 12.5 WNW 24 32 1014.1 - 5.4 - Partly cloudy - - - - -
05/11:00am 12.4 W 25 32 1014.4 - 3.2 - Partly cloudy - - - - -
05/10:30am 12.6 W 23 29 1014.3 - 2.6 - Partly cloudy - - - - -
05/10:07am 12.5 W 21 31 1014.3 - 1.4 - Partly cloudy - - - - -
05/10:00am 12.8 W 22 29 1014.3 - 1.2 - Partly cloudy - - - - -
05/09:49am 12.8 W 25 31 1014.3 - 1.0 - Partly cloudy - - - - -
05/09:34am 12.6 W 26 33 1014.3 - 0.6 - Partly cloudy - - - - -
05/09:30am 12.7 W 26 37 1014.2 - 0.6 - Partly cloudy - - - - -
05/09:08am 12.6 W 26 36 1014.0 - 0.2 - Partly cloudy - - - - -
05/09:00am 12.5 W 23 30 1014.1 - 20.6 Recent precip. Cloudy - - - - -
05/08:30am 12.8 WNW 26 31 1013.8 - 20.2 - Partly cloudy - - - - -
05/08:00am 12.3 W 24 30 1013.8 - 20.0 - Partly cloudy - - - - -
05/07:32am 12.1 W 27 37 1013.7 - 20.0 - Partly cloudy - - - - -
05/07:31am 12.1 W 28 37 1013.7 - 20.0 - Partly cloudy - - - - -
05/07:30am 12.0 W 29 38 1013.7 - 20.0 - Partly cloudy - - - - -
05/07:01am 12.0 WNW 28 38 1013.5 - 19.4 - Partly cloudy - - - - -
05/07:00am 12.1 WNW 29 38 1013.6 - 19.4 - Partly cloudy - - - - -
05/06:53am 12.3 WNW 27 38 1013.4 - 18.4 - Partly cloudy - - - - -
05/06:49am 12.3 WNW 26 34 1013.5 - 17.8 - Partly cloudy - - - - -
05/06:30am 12.5 NW 23 33 1013.5 - 15.0 - Partly cloudy - - - - -
05/06:16am 12.3 WNW 19 30 1013.6 - 14.4 - Partly cloudy - - - - -
05/06:10am 12.4 WNW 19 24 1013.7 - 13.8 - Partly cloudy - - - - -
05/06:00am 12.4 WNW 19 25 1013.7 - 13.4 Rain Cloudy - - - - -
05/05:56am 12.2 WNW 19 25 1013.8 - 13.2 - Partly cloudy - - - - -
05/05:30am 12.0 WNW 20 26 1013.8 - 12.2 - Partly cloudy - - - - -
05/05:00am 12.1 WNW 21 26 1014.0 - 11.6 - Partly cloudy - - - - -
05/04:48am 12.4 WNW 19 25 1014.1 - 11.4 - Partly cloudy - - - - -
05/04:30am 12.5 W 16 20 1014.2 - 11.2 - Partly cloudy - - - - -
05/04:29am 12.5 W 15 20 1014.2 - 11.2 - Partly cloudy - - - - -
05/04:00am 11.7 WSW 9 13 1014.6 - 11.2 - Partly cloudy - - - - -
05/03:30am 11.3 WSW 11 18 1014.9 - 11.2 - Partly cloudy - - - - -
05/03:21am 11.8 W 21 30 1015.1 - 10.2 - Partly cloudy - - - - -
05/03:17am 11.9 W 22 29 1014.8 - 9.8 - Partly cloudy - - - - -
05/03:00am 11.9 W 11 22 1015.0 - 9.8 Recent precip. Cloudy - - - - -
05/02:39am 11.6 WSW 11 17 1015.2 - 9.2 - Partly cloudy - - - - -
05/02:30am 11.5 W 17 23 1015.2 - 8.6 - Partly cloudy - - - - -
05/02:20am 11.7 W 17 29 1015.1 - 7.4 - Partly cloudy - - - - -
05/02:14am 11.8 WNW 14 29 1014.9 - 7.2 - Partly cloudy - - - - -
05/02:00am 11.9 WNW 8 12 1015.1 - 6.0 - Partly cloudy - - - - -
05/01:56am 11.9 WNW 9 12 1015.0 - 5.6 - Partly cloudy - - - - -
05/01:54am 11.9 WNW 10 12 1015.0 - 5.4 - Partly cloudy - - - - -
05/01:30am 11.7 WNW 10 12 1015.2 - 4.2 - Partly cloudy - - - - -
05/01:10am 11.6 WNW 10 14 1015.4 - 4.2 - Partly cloudy - - - - -
05/01:00am 11.6 W 10 13 1015.6 - 4.2 - Partly cloudy - - - - -
05/12:30am 11.4 W 12 15 1015.8 - 4.2 - Partly cloudy - - - - -
05/12:00am 11.1 NW 6 9 1016.1 - 4.0 - Cloudy - - - - -
 
Date/Time
EST
Temp

°C
Wind Pressure Rain
since 9am
mm
Weather Cloud Vis
km
Sea
Height
m
Swell
Dir
 
Speed
knots
Gust
knots
hPa Trend Height
m
Period
s
Dir
04/11:30pm 10.7 WNW 2 4 1016.1 - 4.0 - Partly cloudy - - - - -
04/11:00pm 10.7 W 4 5 1016.3 - 4.0 - Partly cloudy - - - - -
04/10:34pm 10.6 NW 3 4 1016.5 - 4.0 - Partly cloudy - - - - -
04/10:30pm 10.5 N 3 4 1016.5 - 4.0 - Partly cloudy - - - - -
04/10:00pm 10.4 S 2 5 1016.7 - 4.0 - Partly cloudy - - - - -
04/09:30pm 10.4 CALM 0 0 1016.9 - 3.8 - Partly cloudy - - - - -
04/09:00pm 10.7 SSW 3 5 1016.9 - 3.8 Recent precip. Cloudy - - - - -
04/08:44pm 10.7 SW 3 4 1016.9 - 3.8 - Partly cloudy - - - - -
04/08:30pm 10.8 SW 4 5 1016.9 - 3.8 - Partly cloudy - - - - -
04/08:01pm 10.8 SW 6 7 1016.9 - 3.6 - Partly cloudy - - - - -
04/08:00pm 10.8 SW 6 7 1016.9 - 3.6 - Partly cloudy - - - - -
04/07:50pm 10.8 SW 7 8 1016.8 - 3.6 - Partly cloudy - - - - -
04/07:30pm 10.7 SW 8 9 1016.9 - 3.4 - Partly cloudy - - - - -
04/07:22pm 10.7 SW 7 9 1016.8 - 3.4 - Partly cloudy - - - - -
04/07:00pm 10.8 SW 10 13 1016.9 - 3.4 - Partly cloudy - - - - -
04/06:30pm 10.9 SW 11 14 1016.6 - 3.4 - Partly cloudy - - - - -
04/06:00pm 11.0 SW 13 15 1016.4 - 3.2 - Cloudy - - - - -
04/05:30pm 11.0 SW 13 17 1016.2 - 3.2 - Partly cloudy - - - - -
04/05:12pm 11.1 SW 12 16 1016.2 - 3.2 - Partly cloudy - - - - -
04/05:00pm 11.1 SW 12 14 1016.1 - 3.2 - Partly cloudy - - - - -
04/04:30pm 10.9 SW 13 17 1016.1 - 3.2 - Partly cloudy - - - - -
04/04:14pm 11.1 SW 15 21 1016.1 - 2.8 - Partly cloudy - - - - -
04/04:00pm 11.4 SW 15 19 1016.2 - 2.8 - Partly cloudy - - - - -
04/03:54pm 11.2 SW 14 19 1016.1 - 2.8 - Partly cloudy - - - - -
04/03:30pm 11.3 SW 16 19 1015.9 - 2.8 - Partly cloudy - - - - -

Other Formats:

Comma delimited format used in spreadsheet applications
http://www.bom.gov.au/fwo/IDV60701/IDV60701.95954.axf

JavaScript Object Notation format (JSON) in row-major order
http://www.bom.gov.au/fwo/IDV60701/IDV60701.95954.json